createdAt,value
2023-02-19T00:00:28.986Z,2.20
2023-02-19T00:02:57.823Z,1.57
2023-02-19T00:05:24.641Z,1.80
2023-02-19T00:07:51.375Z,1.90
2023-02-19T00:10:18.310Z,2.00
2023-02-19T00:12:45.023Z,1.57
2023-02-19T00:15:12.948Z,1.90
2023-02-19T00:17:39.731Z,1.23
2023-02-19T00:20:07.044Z,1.67
2023-02-19T00:22:33.829Z,1.80
2023-02-19T00:25:00.695Z,1.93
2023-02-19T00:27:46.251Z,1.63
2023-02-19T00:30:13.438Z,2.00
2023-02-19T00:32:40.288Z,2.17
2023-02-19T00:35:10.889Z,1.73
2023-02-19T00:37:37.630Z,2.10
2023-02-19T00:40:04.547Z,1.90
2023-02-19T00:42:31.293Z,2.40
2023-02-19T00:44:58.037Z,2.53
2023-02-19T00:47:24.842Z,2.17
2023-02-19T00:49:51.566Z,2.50
2023-02-19T00:52:18.401Z,2.03
2023-02-19T00:54:45.111Z,2.20
2023-02-19T00:57:11.931Z,2.10
2023-02-19T00:59:38.717Z,1.80
2023-02-19T01:02:05.516Z,2.57
2023-02-19T01:04:32.309Z,1.70
2023-02-19T01:06:59.091Z,1.50
2023-02-19T01:09:25.904Z,1.70
2023-02-19T01:11:52.729Z,1.77
2023-02-19T01:14:19.517Z,1.73
2023-02-19T01:16:46.310Z,1.47
2023-02-19T01:19:13.108Z,1.07
2023-02-19T01:21:40.586Z,1.10
2023-02-19T01:24:07.359Z,1.17
2023-02-19T01:26:34.195Z,1.33
2023-02-19T01:29:04.823Z,1.30
2023-02-19T01:31:31.965Z,1.37
2023-02-19T01:34:02.171Z,1.00
2023-02-19T01:36:30.355Z,0.93
2023-02-19T01:39:00.147Z,1.00
2023-02-19T01:41:26.975Z,1.03
2023-02-19T01:44:11.540Z,0.70
2023-02-19T01:46:40.369Z,0.70
2023-02-19T01:49:12.804Z,0.87
2023-02-19T01:51:45.072Z,0.93
2023-02-19T01:54:14.742Z,0.97
2023-02-19T01:56:42.770Z,0.60
2023-02-19T01:59:10.211Z,0.73
2023-02-19T02:01:39.511Z,1.10
2023-02-19T02:04:11.088Z,0.90
2023-02-19T02:06:59.823Z,1.10
2023-02-19T02:09:48.189Z,0.83
2023-02-19T02:12:15.468Z,0.60
2023-02-19T02:14:45.526Z,0.90
2023-02-19T02:17:24.509Z,1.63
2023-02-19T02:21:13.857Z,1.37
2023-02-19T02:24:12.290Z,1.60
2023-02-19T02:27:00.864Z,1.33
2023-02-19T02:29:49.308Z,1.73
2023-02-19T02:32:21.546Z,1.80
2023-02-19T02:35:00.037Z,1.90
2023-02-19T02:37:30.480Z,1.77
2023-02-19T02:39:58.912Z,1.50
2023-02-19T02:42:29.481Z,1.63
2023-02-19T02:45:36.477Z,1.50
2023-02-19T02:48:56.774Z,1.47
2023-02-19T02:51:33.993Z,0.90
2023-02-19T02:54:33.297Z,0.93
2023-02-19T02:57:04.497Z,0.67
2023-02-19T02:59:39.596Z,0.80
2023-02-19T03:02:18.929Z,0.80
2023-02-19T03:05:41.459Z,0.87
2023-02-19T03:08:32.831Z,3.43
2023-02-19T03:11:27.748Z,1.60
2023-02-19T03:15:01.898Z,0.70
2023-02-19T03:18:11.002Z,0.67
2023-02-19T03:21:00.829Z,0.73
2023-02-19T03:23:49.685Z,0.53
2023-02-19T03:26:19.324Z,0.70
2023-02-19T03:29:11.843Z,0.70
2023-02-19T03:32:11.623Z,0.50
2023-02-19T03:34:44.799Z,0.60
2023-02-19T03:37:17.379Z,0.70
2023-02-19T03:39:44.965Z,0.50
2023-02-19T03:42:24.907Z,0.50
2023-02-19T03:45:11.673Z,0.77
2023-02-19T03:47:54.506Z,0.43
2023-02-19T03:50:27.493Z,0.40
2023-02-19T03:56:06.855Z,0.33
2023-02-19T03:58:54.529Z,0.50
2023-02-19T04:01:48.760Z,0.30
2023-02-19T04:04:21.687Z,0.50
2023-02-19T04:06:54.813Z,0.43
2023-02-19T04:09:24.361Z,0.40
2023-02-19T04:11:59.935Z,0.47
2023-02-19T04:14:33.579Z,0.37
2023-02-19T04:17:05.488Z,0.40
2023-02-19T04:19:36.568Z,0.30
2023-02-19T04:22:06.054Z,0.30
2023-02-19T04:24:55.528Z,0.30
2023-02-19T04:27:22.355Z,0.27
2023-02-19T04:29:49.130Z,0.40
2023-02-19T04:32:15.958Z,0.30
2023-02-19T04:34:42.691Z,0.30
2023-02-19T04:37:09.557Z,0.30
2023-02-19T04:39:36.589Z,0.27
2023-02-19T04:42:03.893Z,0.30
2023-02-19T04:44:30.627Z,0.30
2023-02-19T04:47:16.228Z,0.40
2023-02-19T04:49:43.020Z,0.27
2023-02-19T04:52:10.676Z,0.30
2023-02-19T04:54:37.626Z,0.30
2023-02-19T04:57:04.364Z,0.27
2023-02-19T04:59:31.276Z,0.20
2023-02-19T05:01:58.060Z,0.20
2023-02-19T05:04:24.977Z,0.20
2023-02-19T05:06:51.748Z,0.20
2023-02-19T05:09:18.579Z,0.20
2023-02-19T05:14:29.349Z,0.20
2023-02-19T05:16:56.150Z,0.30
2023-02-19T05:19:23.127Z,0.50
2023-02-19T05:21:49.896Z,0.20
2023-02-19T05:24:16.634Z,0.20
2023-02-19T05:27:01.714Z,0.30
2023-02-19T05:29:49.038Z,0.20
2023-02-19T05:32:15.948Z,0.30
2023-02-19T05:35:01.259Z,0.30
2023-02-19T05:37:28.036Z,0.20
2023-02-19T05:39:54.956Z,0.20
2023-02-19T05:42:21.770Z,0.20
2023-02-19T05:44:48.679Z,0.30
2023-02-19T05:47:15.416Z,0.20
2023-02-19T05:49:42.112Z,0.20
2023-02-19T05:52:27.380Z,0.20
2023-02-19T05:54:54.130Z,0.20
2023-02-19T05:57:21.584Z,0.20
2023-02-19T05:59:48.404Z,0.20
2023-02-19T06:02:15.160Z,0.20
2023-02-19T06:04:41.988Z,0.20
2023-02-19T06:07:09.000Z,0.20
2023-02-19T06:09:35.821Z,0.20
2023-02-19T06:12:02.675Z,0.30
2023-02-19T06:14:47.956Z,0.20
2023-02-19T06:17:15.069Z,0.20
2023-02-19T06:19:41.892Z,0.20
2023-02-19T06:22:08.746Z,0.20
2023-02-19T06:24:37.569Z,0.20
2023-02-19T06:27:08.600Z,0.13
2023-02-19T06:29:38.307Z,0.20
2023-02-19T06:32:06.473Z,0.10
2023-02-19T06:34:34.404Z,0.20
2023-02-19T06:37:01.719Z,0.10
2023-02-19T06:39:28.747Z,0.40
2023-02-19T06:41:56.657Z,0.10
2023-02-19T06:44:23.739Z,0.13
2023-02-19T06:46:51.005Z,0.20
2023-02-19T06:49:18.165Z,0.17
2023-02-19T06:51:44.935Z,0.13
2023-02-19T06:54:31.571Z,0.20
2023-02-19T06:56:59.339Z,0.20
2023-02-19T06:59:26.764Z,0.30
2023-02-19T07:01:53.664Z,0.23
2023-02-19T07:07:05.381Z,0.30
2023-02-19T07:09:32.518Z,0.30
2023-02-19T07:11:59.299Z,0.37
2023-02-19T07:14:26.233Z,0.20
2023-02-19T07:16:53.087Z,0.13
2023-02-19T07:22:22.792Z,0.30
2023-02-19T07:24:49.497Z,0.20
2023-02-19T07:27:16.340Z,0.30
2023-02-19T07:29:43.185Z,0.20
2023-02-19T07:32:10.038Z,0.20
2023-02-19T07:34:36.798Z,0.30
2023-02-19T07:37:03.533Z,0.30
2023-02-19T07:39:30.354Z,0.37
2023-02-19T07:41:57.826Z,0.30
2023-02-19T07:44:27.414Z,0.20
2023-02-19T07:46:54.200Z,0.20
2023-02-19T07:49:20.961Z,0.30
2023-02-19T07:51:47.754Z,0.33
2023-02-19T07:54:15.024Z,0.30
2023-02-19T07:56:42.032Z,0.40
2023-02-19T07:59:08.936Z,0.30
2023-02-19T08:01:54.617Z,0.30
2023-02-19T08:04:21.421Z,0.30
2023-02-19T08:06:48.295Z,0.40
2023-02-19T08:09:15.107Z,0.30
2023-02-19T08:12:00.787Z,0.20
2023-02-19T08:14:28.063Z,0.20
2023-02-19T08:16:55.475Z,0.30
2023-02-19T08:19:22.907Z,0.30
2023-02-19T08:21:50.703Z,0.30
2023-02-19T08:24:17.499Z,0.20
2023-02-19T08:26:44.231Z,0.20
2023-02-19T08:29:11.198Z,0.20
2023-02-19T08:31:38.327Z,0.20
2023-02-19T08:34:05.218Z,0.20
2023-02-19T08:36:32.075Z,0.20
2023-02-19T08:39:20.091Z,0.20
2023-02-19T08:41:48.098Z,0.30
2023-02-19T08:44:14.858Z,0.20
2023-02-19T08:47:00.421Z,0.10
2023-02-19T08:49:27.498Z,0.30
2023-02-19T08:51:54.300Z,0.37
2023-02-19T08:54:39.666Z,0.30
2023-02-19T08:57:06.496Z,0.30
2023-02-19T08:59:33.212Z,0.40
2023-02-19T09:02:00.418Z,0.30
2023-02-19T09:04:27.201Z,0.20
2023-02-19T09:06:54.267Z,0.40
2023-02-19T09:09:21.024Z,0.30
2023-02-19T09:11:49.321Z,0.30
2023-02-19T09:14:16.189Z,0.20
2023-02-19T09:17:01.819Z,0.30
2023-02-19T09:19:29.288Z,0.33
2023-02-19T09:21:56.382Z,0.40
2023-02-19T09:24:23.669Z,0.30
2023-02-19T09:26:51.748Z,0.30
2023-02-19T09:29:19.416Z,0.30
2023-02-19T09:31:46.475Z,0.30
2023-02-19T09:34:13.677Z,0.30
2023-02-19T09:36:40.492Z,0.50
2023-02-19T09:39:08.936Z,0.30
2023-02-19T09:41:39.681Z,0.20
2023-02-19T09:44:10.458Z,0.30
2023-02-19T09:46:46.196Z,0.30
2023-02-19T09:49:35.791Z,0.23
2023-02-19T09:52:02.501Z,0.30
2023-02-19T09:54:32.001Z,0.30
2023-02-19T09:57:02.375Z,0.30
2023-02-19T10:02:24.627Z,0.20
2023-02-19T10:04:52.800Z,0.30
2023-02-19T10:07:23.805Z,0.40
2023-02-19T10:10:10.568Z,0.30
2023-02-19T10:12:37.324Z,0.30
2023-02-19T10:15:30.428Z,0.20
2023-02-19T10:17:57.364Z,0.10
2023-02-19T10:20:27.821Z,0.30
2023-02-19T10:23:08.884Z,0.30
2023-02-19T10:25:37.123Z,0.30
2023-02-19T10:28:04.618Z,0.30
2023-02-19T10:30:35.046Z,0.40
2023-02-19T10:33:11.313Z,0.50
2023-02-19T10:35:51.612Z,0.37
2023-02-19T10:38:20.799Z,0.50
2023-02-19T10:40:48.348Z,0.57
2023-02-19T10:46:19.270Z,0.50
2023-02-19T10:48:58.454Z,0.43
2023-02-19T10:51:35.014Z,0.43
2023-02-19T10:54:17.844Z,0.40
2023-02-19T10:56:44.784Z,0.60
2023-02-19T10:59:25.427Z,0.60
2023-02-19T11:02:21.739Z,0.40
2023-02-19T11:05:07.383Z,0.30
2023-02-19T11:07:36.082Z,0.40
2023-02-19T11:10:04.118Z,0.30
2023-02-19T11:12:33.701Z,0.60
2023-02-19T11:15:19.608Z,0.33
2023-02-19T11:17:55.271Z,0.40
2023-02-19T11:20:22.632Z,0.47
2023-02-19T11:22:49.888Z,0.30
2023-02-19T11:25:17.200Z,0.37
2023-02-19T11:28:20.058Z,0.43
2023-02-19T11:30:47.555Z,0.30
2023-02-19T11:33:17.394Z,0.40
2023-02-19T11:35:45.287Z,0.43
2023-02-19T11:38:14.610Z,0.40
2023-02-19T11:41:08.304Z,0.50
2023-02-19T11:44:14.139Z,0.40
2023-02-19T11:46:49.784Z,0.40
2023-02-19T11:49:26.507Z,0.40
2023-02-19T11:52:30.021Z,0.30
2023-02-19T11:55:24.525Z,0.30
2023-02-19T11:58:32.490Z,0.40
2023-02-19T12:01:24.345Z,0.20
2023-02-19T12:04:12.512Z,0.30
2023-02-19T12:07:16.937Z,0.40
2023-02-19T12:10:25.692Z,0.50
2023-02-19T12:13:07.684Z,0.30
2023-02-19T12:16:01.170Z,0.60
2023-02-19T12:18:58.560Z,0.50
2023-02-19T12:22:01.271Z,0.20
2023-02-19T12:24:43.564Z,0.67
2023-02-19T12:27:22.400Z,0.20
2023-02-19T12:29:51.867Z,1.27
2023-02-19T12:32:44.361Z,0.50
2023-02-19T12:35:39.529Z,0.50
2023-02-19T12:38:52.152Z,0.20
2023-02-19T12:41:41.214Z,0.20
2023-02-19T12:44:21.874Z,0.20
2023-02-19T12:46:55.664Z,0.30
2023-02-19T12:49:42.325Z,0.13
2023-02-19T12:52:29.278Z,0.10
2023-02-19T12:55:01.585Z,0.10
2023-02-19T12:57:47.095Z,0.10
2023-02-19T13:00:45.111Z,0.20
2023-02-19T13:03:21.051Z,0.10
2023-02-19T13:06:13.711Z,0.10
2023-02-19T13:09:16.210Z,0.10
2023-02-19T13:11:55.475Z,0.20
2023-02-19T13:14:39.332Z,0.20
2023-02-19T13:17:18.340Z,0.20
2023-02-19T13:19:48.624Z,0.20
2023-02-19T13:22:48.643Z,0.20
2023-02-19T13:25:18.724Z,0.20
2023-02-19T13:27:58.245Z,0.30
2023-02-19T13:30:39.691Z,0.20
2023-02-19T13:33:12.746Z,0.20
2023-02-19T13:35:57.568Z,0.20
2023-02-19T13:38:46.859Z,0.20
2023-02-19T13:41:26.460Z,0.30
2023-02-19T13:44:19.904Z,0.40
2023-02-19T13:46:48.491Z,0.35
2023-02-19T13:49:34.080Z,0.70
2023-02-19T13:52:06.502Z,0.35
2023-02-19T13:54:37.194Z,0.50
2023-02-19T13:57:22.531Z,0.40
2023-02-19T13:59:58.679Z,0.60
2023-02-19T14:02:28.324Z,0.30
2023-02-19T14:05:14.006Z,0.52
2023-02-19T14:07:53.744Z,0.67
2023-02-19T14:10:51.634Z,0.90
2023-02-19T14:13:52.290Z,1.00
2023-02-19T14:16:28.243Z,0.93
2023-02-19T14:18:56.344Z,1.38
2023-02-19T14:21:38.474Z,1.02
2023-02-19T14:24:11.134Z,0.80
2023-02-19T14:26:38.759Z,1.00
2023-02-19T14:29:08.683Z,0.95
2023-02-19T14:31:38.334Z,0.45
2023-02-19T14:34:25.157Z,0.50
2023-02-19T14:37:01.374Z,0.63
2023-02-19T14:39:47.824Z,0.30
2023-02-19T14:42:20.317Z,0.30
2023-02-19T14:44:57.313Z,0.57
2023-02-19T14:47:27.499Z,0.20
2023-02-19T14:50:06.017Z,0.22
2023-02-19T14:52:47.797Z,0.30
2023-02-19T14:55:30.405Z,0.40
2023-02-19T15:00:44.458Z,0.60
2023-02-19T15:03:48.996Z,0.45
2023-02-19T15:06:19.514Z,0.40
2023-02-19T15:08:53.394Z,0.55
2023-02-19T15:11:26.323Z,0.30
2023-02-19T15:13:57.591Z,0.65
2023-02-19T15:16:26.310Z,0.43
2023-02-19T15:18:55.185Z,0.50
2023-02-19T15:21:30.805Z,0.30
2023-02-19T15:24:01.362Z,0.45
2023-02-19T15:26:41.593Z,0.52
2023-02-19T15:29:23.270Z,0.68
2023-02-19T15:31:58.808Z,0.30
2023-02-19T15:34:28.457Z,0.43
2023-02-19T15:37:07.641Z,0.20
2023-02-19T15:39:45.099Z,0.32
2023-02-19T15:42:20.086Z,0.85
2023-02-19T15:44:52.831Z,0.38
2023-02-19T15:47:40.996Z,0.35
2023-02-19T15:50:17.121Z,0.50
2023-02-19T15:53:11.544Z,0.30
2023-02-19T15:56:02.392Z,0.32
2023-02-19T15:58:36.268Z,0.50
2023-02-19T16:03:57.159Z,1.17
2023-02-19T16:06:25.855Z,0.40
2023-02-19T16:09:11.721Z,1.23
2023-02-19T16:11:53.326Z,2.00
2023-02-19T16:14:30.314Z,0.88
2023-02-19T16:17:12.304Z,0.73
2023-02-19T16:19:52.893Z,0.60
2023-02-19T16:22:22.850Z,0.47
2023-02-19T16:24:56.459Z,0.30
2023-02-19T16:27:32.910Z,0.60
2023-02-19T16:30:17.968Z,0.47
2023-02-19T16:32:47.030Z,0.35
2023-02-19T16:35:36.828Z,0.60
2023-02-19T16:38:03.719Z,0.28
2023-02-19T16:40:40.927Z,0.50
2023-02-19T16:43:26.124Z,0.50
2023-02-19T16:45:52.961Z,0.50
2023-02-19T16:48:22.264Z,0.80
2023-02-19T16:50:49.126Z,0.35
2023-02-19T16:53:28.888Z,0.30
2023-02-19T16:55:55.827Z,0.50
2023-02-19T16:58:22.595Z,0.40
2023-02-19T17:00:49.452Z,0.40
2023-02-19T17:03:19.800Z,0.35
2023-02-19T17:06:24.332Z,0.50
2023-02-19T17:08:51.107Z,0.20
2023-02-19T17:11:18.316Z,0.20
2023-02-19T17:13:47.045Z,0.30
2023-02-19T17:16:23.465Z,0.43
2023-02-19T17:18:50.954Z,0.52
2023-02-19T17:21:17.682Z,0.77
2023-02-19T17:23:44.450Z,0.60
2023-02-19T17:26:17.403Z,0.90
2023-02-19T17:28:44.231Z,0.50
2023-02-19T17:31:11.922Z,0.90
2023-02-19T17:33:39.489Z,0.82
2023-02-19T17:36:07.454Z,0.60
2023-02-19T17:38:34.406Z,0.65
2023-02-19T17:41:01.135Z,0.50
2023-02-19T17:43:27.914Z,1.08
2023-02-19T17:45:54.783Z,0.30
2023-02-19T17:48:24.538Z,0.50
2023-02-19T17:50:52.279Z,0.32
2023-02-19T17:53:19.259Z,0.30
2023-02-19T17:55:46.124Z,0.45
2023-02-19T17:58:13.420Z,0.30
2023-02-19T18:00:40.157Z,0.40
2023-02-19T18:03:10.560Z,0.55
2023-02-19T18:05:37.263Z,0.45
2023-02-19T18:08:04.004Z,0.50
2023-02-19T18:10:30.795Z,0.40
2023-02-19T18:12:57.589Z,0.30
2023-02-19T18:15:29.211Z,0.35
2023-02-19T18:17:57.214Z,0.50
2023-02-19T18:20:27.392Z,0.45
2023-02-19T18:22:55.164Z,0.32
2023-02-19T18:25:22.716Z,0.50
2023-02-19T18:27:49.730Z,0.30
2023-02-19T18:30:19.139Z,0.43
2023-02-19T18:32:49.844Z,0.35
2023-02-19T18:35:18.092Z,0.50
2023-02-19T18:37:45.587Z,0.40
2023-02-19T18:40:12.752Z,0.50
2023-02-19T18:42:40.430Z,0.30
2023-02-19T18:45:07.419Z,0.40
2023-02-19T18:47:34.241Z,0.35
2023-02-19T18:50:01.060Z,0.25
2023-02-19T18:52:28.228Z,0.68
2023-02-19T18:54:57.365Z,0.20
2023-02-19T18:57:25.014Z,0.32
2023-02-19T18:59:51.828Z,0.20
2023-02-19T19:02:19.625Z,0.17
2023-02-19T19:04:51.687Z,0.20
2023-02-19T19:07:20.672Z,0.17
2023-02-19T19:09:48.047Z,0.10
2023-02-19T19:12:15.124Z,0.17
2023-02-19T19:14:41.983Z,0.30
2023-02-19T19:17:26.973Z,0.22
2023-02-19T19:20:12.647Z,0.25
2023-02-19T19:22:58.157Z,0.20
2023-02-19T19:25:24.911Z,0.20
2023-02-19T19:27:55.277Z,0.32
2023-02-19T19:30:22.477Z,0.30
2023-02-19T19:32:50.351Z,0.28
2023-02-19T19:35:20.930Z,0.20
2023-02-19T19:37:48.167Z,0.10
2023-02-19T19:40:18.675Z,0.10
2023-02-19T19:42:46.103Z,0.20
2023-02-19T19:45:14.023Z,0.20
2023-02-19T19:47:40.813Z,0.20
2023-02-19T19:50:07.775Z,0.13
2023-02-19T19:52:34.617Z,0.20
2023-02-19T19:55:01.456Z,0.20
2023-02-19T20:00:14.767Z,0.15
2023-02-19T20:02:41.526Z,0.10
2023-02-19T20:05:08.447Z,0.20
2023-02-19T20:07:35.263Z,0.20
2023-02-19T20:10:02.357Z,0.30
2023-02-19T20:12:29.250Z,0.25
2023-02-19T20:14:56.016Z,0.40
2023-02-19T20:20:12.322Z,0.20
2023-02-19T20:22:39.500Z,0.45
2023-02-19T20:25:06.691Z,0.50
2023-02-19T20:27:33.600Z,0.40
2023-02-19T20:30:00.435Z,0.32
2023-02-19T20:32:27.287Z,0.40
2023-02-19T20:34:54.038Z,0.30
2023-02-19T20:37:20.817Z,0.63
2023-02-19T20:39:47.527Z,0.30
2023-02-19T20:42:16.532Z,0.63
2023-02-19T20:45:02.223Z,0.30
2023-02-19T20:47:28.975Z,0.40
2023-02-19T20:49:55.700Z,0.40
2023-02-19T20:52:24.873Z,0.50
2023-02-19T20:54:55.822Z,0.68
2023-02-19T20:57:23.812Z,0.40
2023-02-19T20:59:50.576Z,0.32
2023-02-19T21:02:27.787Z,0.73
2023-02-19T21:05:13.893Z,0.57
2023-02-19T21:07:40.688Z,0.45
2023-02-19T21:10:08.106Z,0.40
2023-02-19T21:12:34.962Z,0.30
2023-02-19T21:15:01.682Z,0.32
2023-02-19T21:17:28.441Z,0.43
2023-02-19T21:19:55.368Z,0.40
2023-02-19T21:22:22.724Z,0.40
2023-02-19T21:25:08.889Z,0.60
2023-02-19T21:27:35.750Z,0.38
2023-02-19T21:30:03.070Z,0.52
2023-02-19T21:32:48.756Z,0.52
2023-02-19T21:35:15.934Z,0.60
2023-02-19T21:37:44.475Z,0.60
2023-02-19T21:40:12.481Z,0.50
2023-02-19T21:42:39.309Z,0.95
2023-02-19T21:45:06.709Z,0.60
2023-02-19T21:47:52.150Z,0.57
2023-02-19T21:50:20.286Z,0.63
2023-02-19T21:52:47.868Z,0.40
2023-02-19T21:55:15.048Z,0.70
2023-02-19T21:57:41.929Z,0.70
2023-02-19T22:00:09.625Z,0.30
2023-02-19T22:02:36.444Z,0.40
2023-02-19T22:05:03.765Z,0.50
2023-02-19T22:07:30.804Z,0.60
2023-02-19T22:09:57.591Z,0.40
2023-02-19T22:15:08.441Z,0.70
2023-02-19T22:17:35.158Z,0.40
2023-02-19T22:20:21.697Z,0.60
2023-02-19T22:22:48.635Z,0.68
2023-02-19T22:25:15.690Z,0.40
2023-02-19T22:30:26.470Z,0.47
2023-02-19T22:32:53.565Z,0.43
2023-02-19T22:35:20.388Z,0.60
2023-02-19T22:37:47.135Z,0.73
2023-02-19T22:40:14.022Z,0.43
2023-02-19T22:42:40.747Z,0.73
2023-02-19T22:45:08.082Z,0.50
2023-02-19T22:47:34.793Z,0.50
2023-02-19T22:50:01.774Z,0.65
2023-02-19T22:52:28.527Z,0.60
2023-02-19T22:54:56.053Z,0.52
2023-02-19T22:57:22.825Z,0.32
2023-02-19T22:59:49.660Z,0.35
2023-02-19T23:02:17.408Z,0.40
2023-02-19T23:04:44.264Z,0.55
2023-02-19T23:07:11.004Z,0.40
2023-02-19T23:09:56.578Z,0.50
2023-02-19T23:12:23.339Z,0.73
2023-02-19T23:14:50.060Z,0.50
2023-02-19T23:17:16.895Z,0.45
2023-02-19T23:19:43.592Z,0.70
2023-02-19T23:22:10.510Z,0.40
2023-02-19T23:24:37.246Z,0.60
2023-02-19T23:27:04.003Z,0.50
2023-02-19T23:29:31.054Z,0.57
2023-02-19T23:32:00.294Z,0.43
2023-02-19T23:34:27.175Z,0.52
2023-02-19T23:36:54.401Z,0.28
2023-02-19T23:39:22.222Z,0.50
2023-02-19T23:42:26.154Z,0.50
2023-02-19T23:44:52.919Z,0.52
2023-02-19T23:47:20.261Z,0.50
2023-02-19T23:50:05.948Z,0.77
2023-02-19T23:52:32.862Z,0.50
2023-02-19T23:54:59.623Z,0.50
2023-02-19T23:57:26.429Z,0.40
2023-02-19T23:59:53.172Z,0.68
